createdAt,value
2019-06-15T03:25:16.675Z,18.20
2019-06-15T03:27:44.628Z,18.20
2019-06-15T03:30:15.078Z,18.20
2019-06-15T03:32:43.222Z,18.10
2019-06-15T03:35:12.413Z,18.20
2019-06-15T03:37:40.788Z,18.10
2019-06-15T03:40:09.283Z,18.20
2019-06-15T03:42:37.945Z,18.20
2019-06-15T03:45:05.623Z,18.20
2019-06-15T03:50:56.961Z,18.20
2019-06-15T03:53:24.740Z,18.10
2019-06-15T03:55:52.405Z,18.10
2019-06-15T03:58:20.154Z,18.00
2019-06-15T04:00:51.211Z,18.00
2019-06-15T04:03:20.665Z,18.00
2019-06-15T04:05:48.338Z,17.80
2019-06-15T04:08:16.074Z,17.70
2019-06-15T04:10:43.746Z,17.70
2019-06-15T04:13:11.462Z,17.60
2019-06-15T04:15:39.125Z,17.50
2019-06-15T04:18:06.860Z,17.50
2019-06-15T04:20:34.625Z,17.60
2019-06-15T04:23:02.474Z,17.70
2019-06-15T04:25:31.256Z,17.80
2019-06-15T04:27:59.048Z,17.90
2019-06-15T04:30:26.875Z,18.10
2019-06-15T04:32:54.600Z,18.10
2019-06-15T04:35:22.254Z,18.30
2019-06-15T04:37:49.985Z,18.40
2019-06-15T04:40:17.670Z,18.40
2019-06-15T04:42:45.506Z,18.40
2019-06-15T04:45:13.371Z,18.30
2019-06-15T04:47:41.066Z,18.30
2019-06-15T04:50:08.845Z,18.30
2019-06-15T04:52:36.642Z,18.30
2019-06-15T04:55:04.897Z,18.40
2019-06-15T04:57:32.849Z,18.50
2019-06-15T05:00:00.687Z,18.60
2019-06-15T05:02:29.959Z,18.60
2019-06-15T05:04:57.702Z,18.70
2019-06-15T05:07:25.385Z,18.80
2019-06-15T05:09:53.257Z,18.70
2019-06-15T05:12:21.135Z,18.80
2019-06-15T05:14:48.909Z,18.80
2019-06-15T05:17:16.640Z,18.80
2019-06-15T05:19:44.437Z,18.90
2019-06-15T05:22:12.117Z,19.00
2019-06-15T05:24:39.873Z,19.10
2019-06-15T05:27:07.545Z,19.20
2019-06-15T05:29:35.359Z,19.30
2019-06-15T05:32:03.148Z,19.50
2019-06-15T05:34:30.901Z,19.60
2019-06-15T05:36:58.969Z,19.60
2019-06-15T05:39:26.813Z,19.60
2019-06-15T05:41:54.473Z,19.70
2019-06-15T05:44:22.243Z,19.70
2019-06-15T05:46:50.038Z,19.80
2019-06-15T05:49:17.705Z,20.00
2019-06-15T05:51:45.542Z,20.00
2019-06-15T05:54:13.257Z,20.10
2019-06-15T05:56:41.085Z,20.10
2019-06-15T05:59:08.760Z,20.20
2019-06-15T06:01:36.538Z,20.20
2019-06-15T06:04:04.354Z,20.30
2019-06-15T06:06:32.090Z,20.40
2019-06-15T06:08:59.885Z,20.60
2019-06-15T06:11:27.618Z,20.60
2019-06-15T06:13:55.299Z,20.70
2019-06-15T06:16:23.053Z,20.60
2019-06-15T06:18:50.768Z,20.70
2019-06-15T06:21:18.524Z,20.80
2019-06-15T06:23:46.221Z,20.90
2019-06-15T06:26:14.221Z,20.80
2019-06-15T06:28:56.290Z,20.90
2019-06-15T06:31:11.546Z,21.00
2019-06-15T06:33:39.310Z,21.10
2019-06-15T06:36:07.069Z,21.10
2019-06-15T06:38:35.078Z,21.10
2019-06-15T06:41:02.938Z,21.00
2019-06-15T06:43:30.741Z,21.10
2019-06-15T06:45:58.411Z,21.00
2019-06-15T06:48:26.159Z,21.00
2019-06-15T06:50:53.855Z,20.80
2019-06-15T06:53:21.582Z,20.70
2019-06-15T06:55:49.286Z,20.70
2019-06-15T06:58:17.052Z,20.90
2019-06-15T07:00:44.636Z,21.00
2019-06-15T07:03:12.396Z,21.00
2019-06-15T07:05:40.690Z,21.10
2019-06-15T07:08:08.739Z,21.00
2019-06-15T07:10:36.429Z,21.00
2019-06-15T07:13:04.301Z,21.10
2019-06-15T07:15:32.006Z,21.20
2019-06-15T07:17:59.750Z,21.20
2019-06-15T07:20:27.446Z,21.30
2019-06-15T07:22:55.230Z,21.30
2019-06-15T07:25:23.011Z,21.40
2019-06-15T07:27:50.721Z,21.50
2019-06-15T07:30:18.541Z,21.50
2019-06-15T07:32:46.549Z,21.50
2019-06-15T07:35:14.299Z,21.40
2019-06-15T07:37:41.978Z,21.40
2019-06-15T07:40:10.222Z,21.50
2019-06-15T07:42:39.368Z,21.60
2019-06-15T07:45:07.899Z,21.60
2019-06-15T07:47:36.029Z,21.80
2019-06-15T07:50:04.437Z,21.80
2019-06-15T07:52:33.618Z,21.90
2019-06-15T07:55:01.575Z,22.00
2019-06-15T07:57:30.981Z,22.10
2019-06-15T07:59:58.836Z,22.10
2019-06-15T08:02:26.587Z,22.10
2019-06-15T08:04:54.406Z,22.00
2019-06-15T08:07:22.689Z,21.90
2019-06-15T08:09:50.537Z,21.80
2019-06-15T08:12:18.332Z,21.80
2019-06-15T08:14:46.209Z,21.80
2019-06-15T08:17:13.969Z,21.80
2019-06-15T08:19:41.714Z,22.00
2019-06-15T08:22:09.508Z,22.10
2019-06-15T08:24:37.255Z,22.00
2019-06-15T08:27:05.143Z,22.10
2019-06-15T08:29:32.874Z,22.10
2019-06-15T08:32:00.646Z,22.10
2019-06-15T08:34:28.483Z,22.20
2019-06-15T08:36:56.151Z,22.20
2019-06-15T08:39:23.969Z,22.10
2019-06-15T08:41:51.718Z,22.10
2019-06-15T08:44:19.390Z,22.30
2019-06-15T08:46:47.150Z,22.40
2019-06-15T08:49:14.847Z,22.60
2019-06-15T08:51:42.766Z,22.70
2019-06-15T08:54:10.747Z,22.70
2019-06-15T08:56:38.518Z,22.80
2019-06-15T08:59:06.313Z,22.80
2019-06-15T09:01:33.998Z,22.70
2019-06-15T09:04:01.722Z,22.80
2019-06-15T09:06:29.814Z,22.80
2019-06-15T09:08:57.733Z,23.00
2019-06-15T09:11:25.839Z,23.20
2019-06-15T09:13:54.743Z,23.10
2019-06-15T09:16:25.674Z,23.10
2019-06-15T09:18:52.231Z,23.20
2019-06-15T09:21:20.074Z,23.30
2019-06-15T09:23:48.028Z,23.50
2019-06-15T09:26:15.827Z,23.70
2019-06-15T09:28:43.727Z,23.80
2019-06-15T09:31:11.538Z,23.90
2019-06-15T09:33:39.429Z,23.90
2019-06-15T09:36:07.190Z,24.00
2019-06-15T09:38:35.007Z,24.00
2019-06-15T09:41:02.872Z,23.90
2019-06-15T09:43:30.673Z,23.70
2019-06-15T09:45:58.383Z,23.60
2019-06-15T09:48:26.152Z,23.50
2019-06-15T09:50:53.901Z,23.40
2019-06-15T09:53:21.699Z,23.40
2019-06-15T09:55:49.534Z,23.30
2019-06-15T09:58:17.843Z,23.40
2019-06-15T10:00:45.539Z,23.60
2019-06-15T10:03:13.383Z,23.80
2019-06-15T10:05:41.219Z,24.10
2019-06-15T10:08:09.010Z,24.20
2019-06-15T10:10:36.916Z,24.20
2019-06-15T10:13:04.700Z,24.10
2019-06-15T10:15:32.422Z,24.00
2019-06-15T10:18:00.174Z,23.70
2019-06-15T10:20:27.953Z,23.40
2019-06-15T10:22:55.669Z,23.40
2019-06-15T10:25:23.474Z,23.40
2019-06-15T10:27:51.189Z,23.40
2019-06-15T10:30:19.925Z,23.30
2019-06-15T10:32:48.442Z,23.40
2019-06-15T10:35:16.242Z,23.40
2019-06-15T10:37:44.167Z,23.40
2019-06-15T10:40:12.229Z,23.50
2019-06-15T10:42:40.327Z,23.60
2019-06-15T10:45:08.883Z,23.70
2019-06-15T10:47:38.173Z,23.70
2019-06-15T10:50:06.678Z,23.70
2019-06-15T10:52:34.470Z,23.80
2019-06-15T10:55:02.284Z,23.90
2019-06-15T10:57:31.570Z,24.00
2019-06-15T10:59:59.476Z,24.00
2019-06-15T11:02:27.454Z,23.90
2019-06-15T11:04:55.287Z,23.90
2019-06-15T11:07:23.091Z,23.80
2019-06-15T11:09:50.846Z,23.90
2019-06-15T11:12:18.743Z,24.00
2019-06-15T11:14:47.650Z,24.10
2019-06-15T11:17:15.465Z,24.20
2019-06-15T11:19:43.430Z,24.10
2019-06-15T11:22:11.197Z,24.10
2019-06-15T11:24:38.949Z,24.20
2019-06-15T11:27:06.701Z,24.10
2019-06-15T11:29:34.655Z,24.10
2019-06-15T11:32:02.433Z,24.00
2019-06-15T11:34:30.207Z,24.20
2019-06-15T11:36:58.005Z,24.30
2019-06-15T11:39:25.772Z,24.10
2019-06-15T11:41:53.547Z,24.20
2019-06-15T11:44:21.317Z,24.30
2019-06-15T11:46:49.121Z,24.30
2019-06-15T11:49:16.932Z,24.40
2019-06-15T11:51:44.870Z,24.60
2019-06-15T11:54:12.665Z,24.70
2019-06-15T11:56:40.512Z,24.90
2019-06-15T11:59:08.250Z,24.90
2019-06-15T12:01:36.020Z,24.90
2019-06-15T12:04:03.826Z,25.00
2019-06-15T12:06:31.630Z,25.10
2019-06-15T12:08:59.733Z,25.10
2019-06-15T12:11:27.462Z,24.90
2019-06-15T12:13:55.291Z,24.90
2019-06-15T12:16:23.093Z,25.10
2019-06-15T12:18:50.878Z,25.30
2019-06-15T12:21:18.746Z,25.60
2019-06-15T12:23:46.609Z,25.80
2019-06-15T12:26:14.523Z,25.70
2019-06-15T12:28:42.330Z,25.70
2019-06-15T12:31:10.247Z,25.60
2019-06-15T12:33:38.037Z,25.50
2019-06-15T12:36:18.365Z,25.50
2019-06-15T12:38:35.607Z,25.60
2019-06-15T12:41:04.885Z,25.80
2019-06-15T12:43:32.633Z,26.00
2019-06-15T12:46:00.462Z,26.20
2019-06-15T12:48:28.318Z,26.30
2019-06-15T12:50:56.031Z,26.50
2019-06-15T12:53:23.958Z,26.40
2019-06-15T12:55:51.662Z,26.40
2019-06-15T12:58:19.541Z,26.60
2019-06-15T13:01:01.779Z,26.70
2019-06-15T13:03:16.973Z,26.80
2019-06-15T13:05:44.774Z,26.20
2019-06-15T13:08:12.502Z,26.10
2019-06-15T13:10:40.415Z,26.20
2019-06-15T13:13:08.118Z,26.10
2019-06-15T13:15:36.036Z,25.90
2019-06-15T13:18:03.779Z,26.10
2019-06-15T13:20:31.562Z,26.20
2019-06-15T13:22:59.519Z,26.20
2019-06-15T13:25:27.334Z,26.30
2019-06-15T13:27:55.180Z,26.50
2019-06-15T13:32:50.813Z,26.80
2019-06-15T13:35:18.860Z,26.80
2019-06-15T13:37:46.771Z,26.40
2019-06-15T13:40:14.585Z,26.40
2019-06-15T13:42:42.469Z,26.60
2019-06-15T13:45:11.235Z,26.50
2019-06-15T13:47:40.651Z,26.30
2019-06-15T13:50:08.995Z,26.00
2019-06-15T13:52:37.148Z,25.70
2019-06-15T13:55:05.533Z,25.50
2019-06-15T13:57:34.080Z,25.20
2019-06-15T14:00:01.992Z,25.10
2019-06-15T14:02:31.362Z,25.10
2019-06-15T14:04:59.178Z,25.20
2019-06-15T14:07:26.956Z,25.40
2019-06-15T14:09:54.688Z,25.50
2019-06-15T14:12:22.585Z,25.60
2019-06-15T14:14:50.337Z,25.50
2019-06-15T14:17:18.221Z,25.50
2019-06-15T14:19:45.943Z,25.70
2019-06-15T14:22:13.826Z,25.60
2019-06-15T14:24:41.653Z,25.70
2019-06-15T14:27:09.489Z,25.70
2019-06-15T14:29:37.354Z,25.80
2019-06-15T14:32:05.205Z,25.80
2019-06-15T14:34:32.932Z,25.80
2019-06-15T14:37:00.733Z,26.10
2019-06-15T14:39:28.483Z,26.30
2019-06-15T14:41:56.322Z,26.30
2019-06-15T14:44:24.049Z,26.40
2019-06-15T14:49:19.533Z,26.60
2019-06-15T14:51:50.801Z,26.80
2019-06-15T14:54:16.830Z,26.70
2019-06-15T14:56:45.992Z,26.70
2019-06-15T14:59:13.927Z,26.40
2019-06-15T15:01:41.662Z,26.30
2019-06-15T15:04:09.481Z,26.40
2019-06-15T15:06:37.194Z,26.30
2019-06-15T15:09:06.561Z,26.30
2019-06-15T15:11:36.606Z,26.30
2019-06-15T15:14:06.562Z,26.10
2019-06-15T15:16:33.889Z,26.00
2019-06-15T15:19:01.897Z,25.90
2019-06-15T15:21:29.823Z,25.90
2019-06-15T15:23:57.697Z,25.90
2019-06-15T15:26:26.567Z,26.10
2019-06-15T15:28:56.603Z,26.20
2019-06-15T15:31:27.091Z,26.20
2019-06-15T15:33:55.997Z,26.10
2019-06-15T15:36:26.119Z,26.20
2019-06-15T15:38:55.929Z,26.30
2019-06-15T15:41:23.087Z,26.40
2019-06-15T15:43:50.977Z,26.30
2019-06-15T15:46:18.843Z,26.20
2019-06-15T15:48:47.165Z,26.20
2019-06-15T15:51:17.222Z,26.20
2019-06-15T15:53:46.766Z,26.30
2019-06-15T15:56:16.854Z,26.50
2019-06-15T15:58:46.898Z,26.40
2019-06-15T16:01:13.849Z,26.30
2019-06-15T16:03:41.647Z,26.50
2019-06-15T16:06:09.483Z,26.60
2019-06-15T16:08:37.321Z,26.70
2019-06-15T16:11:05.064Z,26.60
2019-06-15T16:13:32.811Z,26.70
2019-06-15T16:16:00.770Z,26.80
2019-06-15T16:18:28.603Z,26.90
2019-06-15T16:20:56.375Z,26.70
2019-06-15T16:23:24.124Z,26.70
2019-06-15T16:25:51.956Z,26.60
2019-06-15T16:28:19.703Z,26.60
2019-06-15T16:31:05.317Z,26.40
2019-06-15T16:33:17.169Z,26.40
2019-06-15T16:35:46.722Z,26.40
2019-06-15T16:38:16.910Z,26.30
2019-06-15T16:40:46.786Z,26.40
2019-06-15T16:43:13.940Z,26.50
2019-06-15T16:45:41.753Z,26.50
2019-06-15T16:48:09.491Z,26.50
2019-06-15T16:50:37.389Z,26.60
2019-06-15T16:53:05.123Z,26.60
2019-06-15T16:55:33.007Z,26.60
2019-06-15T16:58:00.737Z,26.50
2019-06-15T17:00:32.458Z,26.50
2019-06-15T17:02:58.039Z,26.50
2019-06-15T17:05:27.400Z,26.40
2019-06-15T17:07:56.515Z,26.30
2019-06-15T17:10:36.667Z,26.50
2019-06-15T17:13:06.798Z,26.50
2019-06-15T17:15:37.043Z,26.40
2019-06-15T17:18:05.794Z,26.40
2019-06-15T17:20:41.515Z,26.30
2019-06-15T17:23:10.823Z,26.30
2019-06-15T17:25:38.554Z,26.20
2019-06-15T17:28:06.346Z,25.90
2019-06-15T17:30:36.866Z,25.70
2019-06-15T17:33:05.917Z,25.60
2019-06-15T17:35:36.139Z,25.60
2019-06-15T17:38:03.536Z,25.60
2019-06-15T17:40:31.354Z,25.60
2019-06-15T17:42:59.222Z,25.50
2019-06-15T17:45:27.162Z,25.60
2019-06-15T17:47:57.019Z,25.60
2019-06-15T17:50:32.369Z,25.70
2019-06-15T17:53:01.692Z,25.60
2019-06-15T17:55:29.819Z,25.60
2019-06-15T17:57:57.839Z,25.50
2019-06-15T18:32:46.546Z,24.50
2019-06-15T18:35:14.115Z,24.30
2019-06-15T18:37:42.226Z,24.30
2019-06-15T18:40:10.320Z,24.20
2019-06-15T18:42:38.494Z,24.30
2019-06-15T18:45:06.937Z,24.30
2019-06-15T18:47:36.723Z,24.20
2019-06-15T18:50:07.443Z,24.20
2019-06-15T18:52:37.627Z,24.10
2019-06-15T18:55:05.059Z,24.00
2019-06-15T18:57:33.286Z,23.90
2019-06-15T19:00:01.350Z,23.80
2019-06-15T19:02:31.127Z,23.80
2019-06-15T19:04:59.027Z,23.90
2019-06-15T19:07:27.052Z,23.80
2019-06-15T19:09:55.979Z,23.70
2019-06-15T19:12:26.212Z,23.70
2019-06-15T19:14:56.072Z,23.70
2019-06-15T19:17:23.174Z,23.80
2019-06-15T19:19:50.961Z,23.80
2019-06-15T19:22:18.705Z,23.80
2019-06-15T19:24:50.407Z,23.80
2019-06-15T19:27:16.252Z,23.70
2019-06-15T19:29:46.401Z,23.60
2019-06-15T19:32:13.845Z,23.40
2019-06-15T19:34:47.455Z,23.40
2019-06-15T19:37:11.304Z,23.30
2019-06-15T19:39:39.288Z,23.10
2019-06-15T19:42:07.005Z,22.90
2019-06-15T19:44:36.880Z,22.80
2019-06-15T19:47:07.029Z,22.60
2019-06-15T19:49:36.230Z,22.50
2019-06-15T19:52:06.483Z,22.50
2019-06-15T19:54:33.605Z,22.60
2019-06-15T19:57:01.397Z,22.60
2019-06-15T19:59:29.371Z,22.70
2019-06-15T20:01:57.149Z,22.70
2019-06-15T20:04:26.958Z,22.60
2019-06-15T20:06:56.697Z,22.50
2019-06-15T20:09:25.920Z,22.40
2019-06-15T20:11:55.925Z,22.30
2019-06-15T20:14:23.500Z,22.30
2019-06-15T20:16:51.354Z,22.40
2019-06-15T20:19:19.073Z,22.40
2019-06-15T20:21:46.838Z,22.30
2019-06-15T20:24:16.200Z,22.20
2019-06-15T20:26:44.299Z,22.20
2019-06-15T20:29:12.149Z,22.20
2019-06-15T20:31:40.068Z,22.10
2019-06-15T20:34:08.929Z,22.10
2019-06-15T20:36:36.812Z,22.20
2019-06-15T20:39:07.131Z,22.10
2019-06-15T20:41:36.367Z,22.00
2019-06-15T20:44:04.258Z,22.00
2019-06-15T20:46:32.178Z,21.80
2019-06-15T20:49:00.504Z,21.80
2019-06-15T20:51:28.263Z,21.70
2019-06-15T20:53:56.672Z,21.60
2019-06-15T20:56:26.662Z,21.60
2019-06-15T20:58:57.009Z,21.60
2019-06-15T21:01:26.020Z,21.50
2019-06-15T21:03:56.419Z,21.50
2019-06-15T21:06:23.266Z,21.60
2019-06-15T21:08:51.369Z,21.60
2019-06-15T21:11:19.327Z,21.60
2019-06-15T21:13:47.170Z,21.60
2019-06-15T21:16:14.984Z,21.70
2019-06-15T21:18:42.783Z,21.80
2019-06-15T21:21:10.498Z,21.80
2019-06-15T21:23:38.304Z,21.70
2019-06-15T21:26:06.875Z,21.60
2019-06-15T21:28:36.865Z,21.50
2019-06-15T21:31:05.263Z,21.40
2019-06-15T21:33:33.049Z,21.40
2019-06-15T21:36:00.883Z,21.40
2019-06-15T21:38:28.663Z,21.30
2019-06-15T21:40:57.003Z,21.20
2019-06-15T21:43:26.598Z,21.10
2019-06-15T21:45:56.832Z,21.10
2019-06-15T21:48:26.653Z,21.00
2019-06-15T21:50:56.863Z,21.00
2019-06-15T21:53:23.441Z,21.00
2019-06-15T21:55:51.233Z,21.00
2019-06-15T21:58:19.112Z,21.00
2019-06-15T22:01:01.679Z,21.00
2019-06-15T22:03:31.057Z,21.00
2019-06-15T22:06:03.208Z,20.90
